JAL919 RJTT-ROAH
Flight info
| Callsign | JAL919 |
|---|---|
| Flight time | 2h 14m |
| Altitude | 40000 |
| Route | LAXAS Y56 TOHME Y54 KOHWA Y12 AYANO Y128 LAXEL Y52 TONAR Y525 IHEYA |
| Aircraft | A359/H-SDLOVABE1E2E3GHIJ1J3J4J5M1RWYZ/LB1D1G1 |
Departure
| Time | 2026-04-16 12:31 |
|---|---|
| Airport | Tokyo Haneda International Airport (RJTT) |
Arrival
| Time | 2026-04-16 14:46 |
|---|---|
| Airport | Naha International Airport (ROAH) |
| Time | Latitude | Longitude | Altitude | Speed | Heading |
|---|---|---|---|---|---|
| 2026-04-16 11:29 | 35.54720 | 139.78399 | 28 ft | 0 kts | 60° |
| 2026-04-16 12:14 | 35.54717 | 139.78393 | 29 ft | 4 kts | 60° |
| 2026-04-16 12:14 | 35.54704 | 139.78364 | 27 ft | 4 kts | 60° |
| 2026-04-16 12:14 | 35.54690 | 139.78335 | 28 ft | 4 kts | 60° |
| 2026-04-16 12:14 | 35.54677 | 139.78307 | 28 ft | 4 kts | 60° |
| 2026-04-16 12:15 | 35.54663 | 139.78280 | 29 ft | 4 kts | 42° |
| 2026-04-16 12:15 | 35.54641 | 139.78265 | 29 ft | 4 kts | 3° |
| 2026-04-16 12:15 | 35.54616 | 139.78271 | 30 ft | 4 kts | 331° |
| 2026-04-16 12:15 | 35.54596 | 139.78285 | 29 ft | 2 kts | 330° |
| 2026-04-16 12:16 | 35.54574 | 139.78301 | 29 ft | 4 kts | 330° |
| 2026-04-16 12:16 | 35.54551 | 139.78317 | 28 ft | 4 kts | 330° |
| 2026-04-16 12:16 | 35.54535 | 139.78329 | 28 ft | 4 kts | 330° |
| 2026-04-16 12:16 | 35.54530 | 139.78332 | 29 ft | 0 kts | 329° |
| 2026-04-16 12:19 | 35.54532 | 139.78331 | 28 ft | 2 kts | 329° |
| 2026-04-16 12:19 | 35.54567 | 139.78303 | 28 ft | 7 kts | 323° |
| 2026-04-16 12:20 | 35.54587 | 139.78238 | 28 ft | 10 kts | 261° |
| 2026-04-16 12:20 | 35.54529 | 139.78212 | 27 ft | 11 kts | 162° |
| 2026-04-16 12:20 | 35.54450 | 139.78263 | 27 ft | 16 kts | 150° |
| 2026-04-16 12:20 | 35.54346 | 139.78337 | 27 ft | 19 kts | 150° |
| 2026-04-16 12:21 | 35.54229 | 139.78419 | 29 ft | 20 kts | 150° |
| 2026-04-16 12:21 | 35.54099 | 139.78511 | 27 ft | 22 kts | 150° |
| 2026-04-16 12:21 | 35.53980 | 139.78595 | 27 ft | 11 kts | 150° |
| 2026-04-16 12:21 | 35.53908 | 139.78646 | 27 ft | 19 kts | 150° |
| 2026-04-16 12:22 | 35.53785 | 139.78736 | 28 ft | 18 kts | 146° |
| 2026-04-16 12:22 | 35.53689 | 139.78833 | 28 ft | 19 kts | 142° |
| 2026-04-16 12:22 | 35.53580 | 139.78941 | 29 ft | 19 kts | 141° |
| 2026-04-16 12:22 | 35.53481 | 139.79042 | 29 ft | 17 kts | 140° |
| 2026-04-16 12:23 | 35.53408 | 139.79125 | 28 ft | 13 kts | 129° |
| 2026-04-16 12:23 | 35.53377 | 139.79228 | 30 ft | 13 kts | 88° |
| 2026-04-16 12:23 | 35.53413 | 139.79340 | 30 ft | 15 kts | 60° |
| 2026-04-16 12:23 | 35.53473 | 139.79466 | 27 ft | 19 kts | 60° |
| 2026-04-16 12:24 | 35.53539 | 139.79604 | 28 ft | 20 kts | 60° |
| 2026-04-16 12:24 | 35.53611 | 139.79758 | 27 ft | 18 kts | 60° |
| 2026-04-16 12:24 | 35.53667 | 139.79877 | 27 ft | 17 kts | 60° |
| 2026-04-16 12:24 | 35.53700 | 139.79986 | 27 ft | 13 kts | 95° |
| 2026-04-16 12:25 | 35.53641 | 139.80071 | 29 ft | 15 kts | 147° |
| 2026-04-16 12:25 | 35.53544 | 139.80140 | 33 ft | 16 kts | 150° |
| 2026-04-16 12:25 | 35.53435 | 139.80217 | 39 ft | 23 kts | 150° |
| 2026-04-16 12:25 | 35.53305 | 139.80310 | 44 ft | 21 kts | 149° |
| 2026-04-16 12:26 | 35.53180 | 139.80399 | 47 ft | 21 kts | 150° |
| 2026-04-16 12:26 | 35.53072 | 139.80476 | 48 ft | 16 kts | 150° |
| 2026-04-16 12:26 | 35.53002 | 139.80515 | 52 ft | 8 kts | 166° |
| 2026-04-16 12:26 | 35.52925 | 139.80486 | 50 ft | 14 kts | 218° |
| 2026-04-16 12:27 | 35.52854 | 139.80406 | 49 ft | 13 kts | 223° |
| 2026-04-16 12:27 | 35.52786 | 139.80330 | 48 ft | 12 kts | 223° |
| 2026-04-16 12:27 | 35.52716 | 139.80251 | 50 ft | 16 kts | 222° |
| 2026-04-16 12:27 | 35.52632 | 139.80161 | 53 ft | 15 kts | 211° |
| 2026-04-16 12:28 | 35.52543 | 139.80185 | 51 ft | 13 kts | 134° |
| 2026-04-16 12:28 | 35.52476 | 139.80273 | 52 ft | 13 kts | 133° |
| 2026-04-16 12:28 | 35.52435 | 139.80333 | 53 ft | 8 kts | 118° |
| 2026-04-16 12:28 | 35.52441 | 139.80389 | 57 ft | 7 kts | 53° |
| 2026-04-16 12:29 | 35.52460 | 139.80411 | 56 ft | 0 kts | 43° |
| 2026-04-16 12:31 | 35.52470 | 139.80423 | 53 ft | 12 kts | 43° |
| 2026-04-16 12:31 | 35.52705 | 139.80689 | 52 ft | 85 kts | 43° |
| 2026-04-16 12:31 | 35.53325 | 139.81386 | 99 ft | 150 kts | 42° |
| 2026-04-16 12:31 | 35.54104 | 139.82268 | 812 ft | 156 kts | 44° |
| 2026-04-16 12:32 | 35.54539 | 139.83455 | 1731 ft | 153 kts | 85° |
| 2026-04-16 12:32 | 35.54190 | 139.84660 | 2513 ft | 150 kts | 108° |
| 2026-04-16 12:32 | 35.53651 | 139.85788 | 2955 ft | 158 kts | 110° |
| 2026-04-16 12:32 | 35.53059 | 139.86979 | 3279 ft | 171 kts | 112° |
| 2026-04-16 12:33 | 35.52401 | 139.88303 | 3498 ft | 193 kts | 114° |
| 2026-04-16 12:33 | 35.51682 | 139.89791 | 3809 ft | 209 kts | 112° |
| 2026-04-16 12:33 | 35.50908 | 139.91423 | 4023 ft | 233 kts | 112° |
| 2026-04-16 12:33 | 35.50084 | 139.93237 | 4293 ft | 253 kts | 112° |
| 2026-04-16 12:34 | 35.49236 | 139.95174 | 4674 ft | 267 kts | 112° |
| 2026-04-16 12:34 | 35.48150 | 139.97129 | 5176 ft | 284 kts | 131° |
| 2026-04-16 12:34 | 35.46446 | 139.98401 | 5835 ft | 294 kts | 158° |
| 2026-04-16 12:34 | 35.44428 | 139.98671 | 6552 ft | 301 kts | 184° |
| 2026-04-16 12:35 | 35.42420 | 139.97884 | 7131 ft | 308 kts | 210° |
| 2026-04-16 12:35 | 35.40767 | 139.96211 | 7698 ft | 310 kts | 229° |
| 2026-04-16 12:35 | 35.39315 | 139.94240 | 8282 ft | 314 kts | 232° |
| 2026-04-16 12:35 | 35.37877 | 139.92207 | 8857 ft | 318 kts | 232° |
| 2026-04-16 12:36 | 35.36421 | 139.90133 | 9440 ft | 323 kts | 232° |
| 2026-04-16 12:36 | 35.34943 | 139.88030 | 10029 ft | 328 kts | 232° |
| 2026-04-16 12:36 | 35.33437 | 139.85866 | 10362 ft | 340 kts | 234° |
| 2026-04-16 12:36 | 35.32082 | 139.83436 | 10607 ft | 352 kts | 242° |
| 2026-04-16 12:37 | 35.30769 | 139.80833 | 10857 ft | 366 kts | 243° |
| 2026-04-16 12:37 | 35.29428 | 139.78114 | 11103 ft | 378 kts | 243° |
| 2026-04-16 12:37 | 35.28055 | 139.75306 | 11342 ft | 390 kts | 243° |
| 2026-04-16 12:37 | 35.26706 | 139.72402 | 11696 ft | 394 kts | 249° |
| 2026-04-16 12:38 | 35.25765 | 139.69309 | 12195 ft | 391 kts | 258° |
| 2026-04-16 12:38 | 35.25055 | 139.66096 | 12690 ft | 390 kts | 262° |
| 2026-04-16 12:38 | 35.24472 | 139.62843 | 13198 ft | 391 kts | 264° |
| 2026-04-16 12:38 | 35.23954 | 139.59575 | 13673 ft | 392 kts | 265° |
| 2026-04-16 12:39 | 35.23457 | 139.56282 | 14126 ft | 393 kts | 265° |
| 2026-04-16 12:39 | 35.22966 | 139.53032 | 14562 ft | 394 kts | 265° |
| 2026-04-16 12:39 | 35.22456 | 139.49739 | 15057 ft | 394 kts | 265° |
| 2026-04-16 12:39 | 35.21936 | 139.46453 | 15544 ft | 394 kts | 265° |
| 2026-04-16 12:40 | 35.21407 | 139.43162 | 16043 ft | 395 kts | 265° |
| 2026-04-16 12:40 | 35.20870 | 139.39856 | 16797 ft | 397 kts | 265° |
| 2026-04-16 12:40 | 35.20328 | 139.36541 | 17629 ft | 397 kts | 265° |
| 2026-04-16 12:40 | 35.19783 | 139.33220 | 18421 ft | 398 kts | 265° |
| 2026-04-16 12:41 | 35.19239 | 139.29903 | 19094 ft | 399 kts | 265° |
| 2026-04-16 12:41 | 35.18690 | 139.26564 | 19810 ft | 400 kts | 265° |
| 2026-04-16 12:41 | 35.18141 | 139.23234 | 20557 ft | 400 kts | 265° |
| 2026-04-16 12:41 | 35.17589 | 139.19886 | 21310 ft | 400 kts | 265° |
| 2026-04-16 12:42 | 35.17046 | 139.16578 | 22056 ft | 401 kts | 265° |
| 2026-04-16 12:42 | 35.16493 | 139.13239 | 22827 ft | 401 kts | 265° |
| 2026-04-16 12:42 | 35.15938 | 139.09898 | 23592 ft | 401 kts | 265° |
| 2026-04-16 12:42 | 35.15379 | 139.06551 | 24188 ft | 403 kts | 265° |
| 2026-04-16 12:43 | 35.14816 | 139.03177 | 24731 ft | 406 kts | 265° |
| 2026-04-16 12:43 | 35.14251 | 138.99786 | 25341 ft | 407 kts | 265° |
| 2026-04-16 12:43 | 35.13684 | 138.96393 | 25898 ft | 410 kts | 265° |
| 2026-04-16 12:43 | 35.13110 | 138.92956 | 26454 ft | 413 kts | 265° |
| 2026-04-16 12:44 | 35.12543 | 138.89556 | 26953 ft | 416 kts | 265° |
| 2026-04-16 12:44 | 35.11959 | 138.86079 | 27439 ft | 419 kts | 265° |
| 2026-04-16 12:44 | 35.11369 | 138.82582 | 28067 ft | 420 kts | 265° |
| 2026-04-16 12:44 | 35.10776 | 138.79083 | 28621 ft | 422 kts | 265° |
| 2026-04-16 12:45 | 35.10179 | 138.75567 | 29189 ft | 422 kts | 265° |
| 2026-04-16 12:45 | 35.09582 | 138.72073 | 30071 ft | 417 kts | 265° |
| 2026-04-16 12:45 | 35.08992 | 138.68626 | 30752 ft | 413 kts | 265° |
| 2026-04-16 12:45 | 35.08406 | 138.65201 | 31339 ft | 410 kts | 265° |
| 2026-04-16 12:46 | 35.07828 | 138.61818 | 31986 ft | 404 kts | 265° |
| 2026-04-16 12:46 | 35.07254 | 138.58464 | 32598 ft | 401 kts | 265° |
| 2026-04-16 12:46 | 35.06693 | 138.55166 | 32959 ft | 403 kts | 265° |
| 2026-04-16 12:46 | 35.06122 | 138.51807 | 33356 ft | 404 kts | 265° |
| 2026-04-16 12:47 | 35.05549 | 138.48459 | 33912 ft | 401 kts | 265° |
| 2026-04-16 12:47 | 35.04977 | 138.45129 | 34301 ft | 401 kts | 265° |
| 2026-04-16 12:47 | 35.04405 | 138.41804 | 34659 ft | 400 kts | 265° |
| 2026-04-16 12:47 | 35.03834 | 138.38484 | 35028 ft | 399 kts | 265° |
| 2026-04-16 12:48 | 35.03261 | 138.35148 | 35216 ft | 403 kts | 265° |
| 2026-04-16 12:48 | 35.02690 | 138.31827 | 35365 ft | 408 kts | 265° |
| 2026-04-16 12:48 | 35.02099 | 138.28415 | 35499 ft | 412 kts | 265° |
| 2026-04-16 12:48 | 35.01501 | 138.24975 | 35640 ft | 417 kts | 265° |
| 2026-04-16 12:49 | 35.00900 | 138.21492 | 35750 ft | 421 kts | 264° |
| 2026-04-16 12:49 | 35.00293 | 138.17987 | 35936 ft | 423 kts | 264° |
| 2026-04-16 12:49 | 34.99680 | 138.14476 | 36262 ft | 423 kts | 264° |
| 2026-04-16 12:49 | 34.99064 | 138.10958 | 36486 ft | 425 kts | 264° |
| 2026-04-16 12:50 | 34.98443 | 138.07434 | 36761 ft | 424 kts | 264° |
| 2026-04-16 12:50 | 34.97821 | 138.03922 | 37216 ft | 421 kts | 264° |
| 2026-04-16 12:50 | 34.97201 | 138.00448 | 37747 ft | 416 kts | 264° |
| 2026-04-16 12:50 | 34.96589 | 137.97007 | 38119 ft | 415 kts | 264° |
| 2026-04-16 12:51 | 34.95981 | 137.93566 | 38356 ft | 415 kts | 264° |
| 2026-04-16 12:51 | 34.95380 | 137.90154 | 38586 ft | 415 kts | 264° |
| 2026-04-16 12:51 | 34.94772 | 137.86714 | 38845 ft | 415 kts | 264° |
| 2026-04-16 12:51 | 34.94161 | 137.83266 | 39063 ft | 414 kts | 264° |
| 2026-04-16 12:52 | 34.93557 | 137.79849 | 39306 ft | 411 kts | 264° |
| 2026-04-16 12:52 | 34.92961 | 137.76487 | 39572 ft | 409 kts | 264° |
| 2026-04-16 12:52 | 34.92358 | 137.73112 | 39821 ft | 407 kts | 263° |
| 2026-04-16 12:52 | 34.91751 | 137.69751 | 40019 ft | 407 kts | 263° |
| 2026-04-16 12:53 | 34.90044 | 137.63117 | 40108 ft | 411 kts | 257° |
| 2026-04-16 12:53 | 34.88097 | 137.56542 | 40107 ft | 412 kts | 256° |
| 2026-04-16 12:54 | 34.86111 | 137.49991 | 40107 ft | 412 kts | 257° |
| 2026-04-16 12:54 | 34.84145 | 137.43440 | 40104 ft | 411 kts | 257° |
| 2026-04-16 12:55 | 34.82271 | 137.36860 | 40099 ft | 411 kts | 258° |
| 2026-04-16 12:55 | 34.80414 | 137.30291 | 40102 ft | 410 kts | 257° |
| 2026-04-16 12:56 | 34.78551 | 137.23772 | 40102 ft | 410 kts | 257° |
| 2026-04-16 12:56 | 34.76476 | 137.17275 | 40102 ft | 416 kts | 251° |
| 2026-04-16 12:57 | 34.73175 | 137.11341 | 40100 ft | 437 kts | 234° |
| 2026-04-16 12:57 | 34.70823 | 137.08912 | 40104 ft | 450 kts | 226° |
| 2026-04-16 12:57 | 34.68179 | 137.06797 | 40102 ft | 458 kts | 222° |
| 2026-04-16 12:58 | 34.62656 | 137.02930 | 40108 ft | 461 kts | 221° |
| 2026-04-16 12:58 | 34.57146 | 136.98985 | 40108 ft | 459 kts | 222° |
| 2026-04-16 12:59 | 34.51731 | 136.94918 | 40114 ft | 457 kts | 223° |
| 2026-04-16 13:00 | 34.43691 | 136.88770 | 40121 ft | 456 kts | 223° |
| 2026-04-16 13:00 | 34.38312 | 136.84666 | 40125 ft | 456 kts | 223° |
| 2026-04-16 13:01 | 34.32934 | 136.80575 | 40125 ft | 456 kts | 223° |
| 2026-04-16 13:01 | 34.28469 | 136.77187 | 40121 ft | 456 kts | 223° |
| 2026-04-16 13:02 | 34.23086 | 136.73110 | 40123 ft | 456 kts | 223° |
| 2026-04-16 13:02 | 34.16837 | 136.68386 | 40120 ft | 456 kts | 223° |
| 2026-04-16 13:03 | 34.12362 | 136.65003 | 40129 ft | 456 kts | 223° |
| 2026-04-16 13:03 | 34.06978 | 136.60940 | 40129 ft | 456 kts | 223° |
| 2026-04-16 13:04 | 34.01597 | 136.56888 | 40115 ft | 456 kts | 223° |
| 2026-04-16 13:04 | 33.96204 | 136.52845 | 40132 ft | 456 kts | 223° |
| 2026-04-16 13:05 | 33.90820 | 136.48797 | 40127 ft | 456 kts | 223° |
| 2026-04-16 13:05 | 33.85464 | 136.44774 | 40128 ft | 456 kts | 223° |
| 2026-04-16 13:06 | 33.80076 | 136.40737 | 40124 ft | 456 kts | 223° |
| 2026-04-16 13:06 | 33.74680 | 136.36704 | 40104 ft | 456 kts | 223° |
| 2026-04-16 13:07 | 33.69289 | 136.32680 | 40118 ft | 456 kts | 223° |
| 2026-04-16 13:07 | 33.63919 | 136.28679 | 40126 ft | 456 kts | 223° |
| 2026-04-16 13:08 | 33.58524 | 136.24663 | 40120 ft | 457 kts | 223° |
| 2026-04-16 13:08 | 33.53115 | 136.20643 | 40125 ft | 457 kts | 223° |
| 2026-04-16 13:09 | 33.47705 | 136.16629 | 40108 ft | 457 kts | 223° |
| 2026-04-16 13:09 | 33.42297 | 136.12623 | 40118 ft | 457 kts | 223° |
| 2026-04-16 13:10 | 33.36912 | 136.08640 | 40118 ft | 457 kts | 223° |
| 2026-04-16 13:10 | 33.31501 | 136.04643 | 40098 ft | 457 kts | 223° |
| 2026-04-16 13:11 | 33.26076 | 136.00641 | 40119 ft | 458 kts | 223° |
| 2026-04-16 13:11 | 33.20647 | 135.96642 | 40096 ft | 458 kts | 222° |
| 2026-04-16 13:12 | 33.15219 | 135.92650 | 40114 ft | 458 kts | 222° |
| 2026-04-16 13:12 | 33.09819 | 135.88685 | 40116 ft | 458 kts | 222° |
| 2026-04-16 13:13 | 33.04381 | 135.84699 | 40097 ft | 458 kts | 222° |
| 2026-04-16 13:13 | 32.98942 | 135.80716 | 40115 ft | 458 kts | 222° |
| 2026-04-16 13:14 | 32.93506 | 135.76741 | 40102 ft | 458 kts | 222° |
| 2026-04-16 13:14 | 32.88065 | 135.72768 | 40116 ft | 459 kts | 221° |
| 2026-04-16 13:15 | 32.82614 | 135.68795 | 40115 ft | 459 kts | 221° |
| 2026-04-16 13:15 | 32.77198 | 135.64854 | 40116 ft | 459 kts | 221° |
| 2026-04-16 13:16 | 32.71747 | 135.60891 | 40114 ft | 459 kts | 221° |
| 2026-04-16 13:16 | 32.66299 | 135.56936 | 40100 ft | 458 kts | 221° |
| 2026-04-16 13:17 | 32.60859 | 135.52994 | 40113 ft | 458 kts | 221° |
| 2026-04-16 13:17 | 32.55414 | 135.49054 | 40110 ft | 458 kts | 221° |
| 2026-04-16 13:18 | 32.49974 | 135.45122 | 40112 ft | 458 kts | 221° |
| 2026-04-16 13:18 | 32.44567 | 135.41220 | 40117 ft | 457 kts | 220° |
| 2026-04-16 13:19 | 32.39150 | 135.37320 | 40106 ft | 454 kts | 220° |
| 2026-04-16 13:19 | 32.33772 | 135.33454 | 40113 ft | 451 kts | 220° |
| 2026-04-16 13:20 | 32.28411 | 135.29599 | 40113 ft | 451 kts | 220° |
| 2026-04-16 13:20 | 32.23046 | 135.25745 | 40113 ft | 451 kts | 220° |
| 2026-04-16 13:21 | 32.17679 | 135.21898 | 40099 ft | 450 kts | 220° |
| 2026-04-16 13:21 | 32.12377 | 135.18070 | 40106 ft | 446 kts | 222° |
| 2026-04-16 13:22 | 32.07769 | 135.13391 | 40108 ft | 429 kts | 236° |
| 2026-04-16 13:22 | 32.04024 | 135.07953 | 40112 ft | 426 kts | 239° |
| 2026-04-16 13:23 | 32.00453 | 135.02439 | 40111 ft | 425 kts | 239° |
| 2026-04-16 13:23 | 31.96866 | 134.96886 | 40110 ft | 425 kts | 239° |
| 2026-04-16 13:24 | 31.93263 | 134.91358 | 40110 ft | 425 kts | 239° |
| 2026-04-16 13:24 | 31.89653 | 134.85852 | 40110 ft | 424 kts | 239° |
| 2026-04-16 13:25 | 31.86037 | 134.80348 | 40110 ft | 423 kts | 239° |
| 2026-04-16 13:25 | 31.82434 | 134.74869 | 40110 ft | 423 kts | 239° |
| 2026-04-16 13:26 | 31.78850 | 134.69425 | 40109 ft | 423 kts | 239° |
| 2026-04-16 13:26 | 31.75242 | 134.63953 | 40108 ft | 423 kts | 239° |
| 2026-04-16 13:27 | 31.71624 | 134.58475 | 40112 ft | 423 kts | 239° |
| 2026-04-16 13:27 | 31.68013 | 134.53014 | 40117 ft | 423 kts | 239° |
| 2026-04-16 13:28 | 31.64423 | 134.47594 | 40102 ft | 422 kts | 239° |
| 2026-04-16 13:28 | 31.60815 | 134.42153 | 40102 ft | 422 kts | 239° |
| 2026-04-16 13:29 | 31.57209 | 134.36721 | 40102 ft | 422 kts | 239° |
| 2026-04-16 13:29 | 31.53604 | 134.31301 | 40109 ft | 421 kts | 238° |
| 2026-04-16 13:30 | 31.50018 | 134.25917 | 40108 ft | 421 kts | 238° |
| 2026-04-16 13:30 | 31.46412 | 134.20510 | 40112 ft | 420 kts | 238° |
| 2026-04-16 13:31 | 31.42811 | 134.15117 | 40104 ft | 420 kts | 238° |
| 2026-04-16 13:31 | 31.39206 | 134.09727 | 40105 ft | 420 kts | 238° |
| 2026-04-16 13:32 | 31.35605 | 134.04349 | 40104 ft | 420 kts | 238° |
| 2026-04-16 13:32 | 31.31997 | 133.98969 | 40099 ft | 420 kts | 238° |
| 2026-04-16 13:33 | 31.28411 | 133.93629 | 40105 ft | 420 kts | 238° |
| 2026-04-16 13:33 | 31.24800 | 133.88259 | 40106 ft | 420 kts | 238° |
| 2026-04-16 13:34 | 31.21194 | 133.82904 | 40075 ft | 420 kts | 238° |
| 2026-04-16 13:34 | 31.17575 | 133.77537 | 40102 ft | 420 kts | 238° |
| 2026-04-16 13:35 | 31.13979 | 133.72212 | 40101 ft | 420 kts | 238° |
| 2026-04-16 13:35 | 31.10361 | 133.66861 | 40100 ft | 420 kts | 238° |
| 2026-04-16 13:36 | 31.06737 | 133.61508 | 40101 ft | 420 kts | 238° |
| 2026-04-16 13:36 | 31.03109 | 133.56159 | 40101 ft | 420 kts | 238° |
| 2026-04-16 13:37 | 30.99477 | 133.50815 | 40103 ft | 420 kts | 238° |
| 2026-04-16 13:37 | 30.95851 | 133.45472 | 40075 ft | 420 kts | 238° |
| 2026-04-16 13:38 | 30.92245 | 133.40167 | 40099 ft | 420 kts | 238° |
| 2026-04-16 13:38 | 30.88613 | 133.34834 | 40096 ft | 420 kts | 238° |
| 2026-04-16 13:39 | 30.84979 | 133.29507 | 40095 ft | 420 kts | 238° |
| 2026-04-16 13:39 | 30.81342 | 133.24183 | 40091 ft | 420 kts | 238° |
| 2026-04-16 13:40 | 30.77723 | 133.18893 | 40093 ft | 420 kts | 238° |
| 2026-04-16 13:40 | 30.74088 | 133.13585 | 40092 ft | 419 kts | 238° |
| 2026-04-16 13:41 | 30.70447 | 133.08277 | 40077 ft | 419 kts | 237° |
| 2026-04-16 13:41 | 30.66821 | 133.02996 | 40088 ft | 420 kts | 237° |
| 2026-04-16 13:42 | 30.63166 | 132.97681 | 40089 ft | 420 kts | 237° |
| 2026-04-16 13:42 | 30.59517 | 132.92384 | 40085 ft | 419 kts | 237° |
| 2026-04-16 13:43 | 30.55872 | 132.87098 | 40084 ft | 419 kts | 237° |
| 2026-04-16 13:43 | 30.52237 | 132.81833 | 40085 ft | 419 kts | 237° |
| 2026-04-16 13:44 | 30.48583 | 132.76548 | 40088 ft | 419 kts | 237° |
| 2026-04-16 13:44 | 30.44927 | 132.71267 | 40066 ft | 419 kts | 237° |
| 2026-04-16 13:45 | 30.41265 | 132.65978 | 40081 ft | 421 kts | 237° |
| 2026-04-16 13:45 | 30.37616 | 132.60723 | 40089 ft | 421 kts | 237° |
| 2026-04-16 13:46 | 30.33934 | 132.55429 | 40083 ft | 421 kts | 237° |
| 2026-04-16 13:46 | 30.30249 | 132.50137 | 40072 ft | 421 kts | 237° |
| 2026-04-16 13:47 | 30.26587 | 132.44879 | 40083 ft | 422 kts | 237° |
| 2026-04-16 13:47 | 30.22891 | 132.39584 | 40083 ft | 423 kts | 237° |
| 2026-04-16 13:48 | 30.19198 | 132.34300 | 40072 ft | 421 kts | 237° |
| 2026-04-16 13:48 | 30.16132 | 132.29918 | 40065 ft | 422 kts | 237° |
| 2026-04-16 13:49 | 30.12426 | 132.24625 | 40073 ft | 424 kts | 237° |
| 2026-04-16 13:49 | 30.08701 | 132.19315 | 40079 ft | 424 kts | 237° |
| 2026-04-16 13:50 | 30.04981 | 132.14020 | 40069 ft | 424 kts | 237° |
| 2026-04-16 13:50 | 30.01276 | 132.08752 | 40068 ft | 425 kts | 236° |
| 2026-04-16 13:51 | 29.97548 | 132.03456 | 40071 ft | 425 kts | 236° |
| 2026-04-16 13:51 | 29.93831 | 131.98186 | 40073 ft | 425 kts | 236° |
| 2026-04-16 13:52 | 29.90089 | 131.92886 | 40048 ft | 425 kts | 236° |
| 2026-04-16 13:52 | 29.86355 | 131.87604 | 40059 ft | 426 kts | 236° |
| 2026-04-16 13:53 | 29.82608 | 131.82312 | 40066 ft | 426 kts | 236° |
| 2026-04-16 13:53 | 29.78827 | 131.77058 | 40065 ft | 426 kts | 235° |
| 2026-04-16 13:54 | 29.74971 | 131.71869 | 40049 ft | 427 kts | 235° |
| 2026-04-16 13:54 | 29.71105 | 131.66681 | 40070 ft | 427 kts | 235° |
| 2026-04-16 13:55 | 29.67251 | 131.61489 | 40056 ft | 427 kts | 235° |
| 2026-04-16 13:55 | 29.63417 | 131.56318 | 40052 ft | 427 kts | 235° |
| 2026-04-16 13:56 | 29.59554 | 131.51114 | 40053 ft | 427 kts | 235° |
| 2026-04-16 13:56 | 29.55694 | 131.45920 | 40051 ft | 427 kts | 235° |
| 2026-04-16 13:57 | 29.51829 | 131.40729 | 40048 ft | 427 kts | 235° |
| 2026-04-16 13:57 | 29.47958 | 131.35535 | 40023 ft | 428 kts | 234° |
| 2026-04-16 13:58 | 29.42163 | 131.27771 | 40048 ft | 429 kts | 234° |
| 2026-04-16 13:58 | 29.38274 | 131.22571 | 40045 ft | 429 kts | 234° |
| 2026-04-16 13:59 | 29.34382 | 131.17373 | 40045 ft | 429 kts | 234° |
| 2026-04-16 13:59 | 29.30486 | 131.12175 | 40051 ft | 430 kts | 234° |
| 2026-04-16 14:00 | 29.26604 | 131.07003 | 40045 ft | 430 kts | 234° |
| 2026-04-16 14:00 | 29.22704 | 131.01815 | 40045 ft | 430 kts | 234° |
| 2026-04-16 14:01 | 29.18802 | 130.96630 | 40040 ft | 430 kts | 234° |
| 2026-04-16 14:01 | 29.14895 | 130.91444 | 40041 ft | 430 kts | 234° |
| 2026-04-16 14:02 | 29.10985 | 130.86262 | 40037 ft | 430 kts | 234° |
| 2026-04-16 14:02 | 29.07095 | 130.81111 | 40037 ft | 430 kts | 234° |
| 2026-04-16 14:03 | 29.03181 | 130.75936 | 40029 ft | 430 kts | 234° |
| 2026-04-16 14:03 | 28.99262 | 130.70762 | 40033 ft | 431 kts | 234° |
| 2026-04-16 14:04 | 28.95335 | 130.65583 | 40034 ft | 431 kts | 234° |
| 2026-04-16 14:04 | 28.91405 | 130.60407 | 40031 ft | 431 kts | 234° |
| 2026-04-16 14:05 | 28.87490 | 130.55257 | 40030 ft | 431 kts | 234° |
| 2026-04-16 14:05 | 28.83556 | 130.50088 | 40034 ft | 431 kts | 234° |
| 2026-04-16 14:06 | 28.79637 | 130.44946 | 40036 ft | 431 kts | 234° |
| 2026-04-16 14:06 | 28.75699 | 130.39786 | 40034 ft | 431 kts | 234° |
| 2026-04-16 14:07 | 28.71765 | 130.34637 | 40033 ft | 431 kts | 233° |
| 2026-04-16 14:07 | 28.67819 | 130.29478 | 40034 ft | 431 kts | 233° |
| 2026-04-16 14:08 | 28.63869 | 130.24320 | 40037 ft | 431 kts | 233° |
| 2026-04-16 14:08 | 28.59951 | 130.19212 | 40031 ft | 431 kts | 233° |
| 2026-04-16 14:09 | 28.56005 | 130.14072 | 40029 ft | 432 kts | 233° |
| 2026-04-16 14:09 | 28.52039 | 130.08912 | 40027 ft | 433 kts | 233° |
| 2026-04-16 14:10 | 28.48073 | 130.03761 | 40023 ft | 433 kts | 233° |
| 2026-04-16 14:10 | 28.44098 | 129.98603 | 40022 ft | 434 kts | 233° |
| 2026-04-16 14:11 | 28.40110 | 129.93434 | 40017 ft | 435 kts | 233° |
| 2026-04-16 14:11 | 28.36116 | 129.88264 | 40022 ft | 435 kts | 233° |
| 2026-04-16 14:12 | 28.32117 | 129.83095 | 40022 ft | 436 kts | 233° |
| 2026-04-16 14:12 | 28.28116 | 129.77930 | 40028 ft | 435 kts | 233° |
| 2026-04-16 14:13 | 28.24130 | 129.72789 | 39999 ft | 436 kts | 232° |
| 2026-04-16 14:13 | 28.20217 | 129.67534 | 40008 ft | 435 kts | 235° |
| 2026-04-16 14:14 | 28.16499 | 129.62122 | 40011 ft | 434 kts | 236° |
| 2026-04-16 14:14 | 28.12823 | 129.56681 | 40023 ft | 434 kts | 236° |
| 2026-04-16 14:15 | 28.09175 | 129.51291 | 40019 ft | 434 kts | 236° |
| 2026-04-16 14:15 | 28.05608 | 129.46042 | 40018 ft | 434 kts | 236° |
| 2026-04-16 14:16 | 28.01910 | 129.40614 | 39835 ft | 434 kts | 236° |
| 2026-04-16 14:16 | 28.00064 | 129.37908 | 39604 ft | 436 kts | 236° |
| 2026-04-16 14:16 | 27.98225 | 129.35212 | 39379 ft | 440 kts | 236° |
| 2026-04-16 14:17 | 27.96347 | 129.32460 | 39140 ft | 442 kts | 236° |
| 2026-04-16 14:17 | 27.94466 | 129.29706 | 38905 ft | 443 kts | 236° |
| 2026-04-16 14:17 | 27.92571 | 129.26936 | 38710 ft | 444 kts | 236° |
| 2026-04-16 14:17 | 27.90680 | 129.24173 | 38436 ft | 444 kts | 236° |
| 2026-04-16 14:18 | 27.88786 | 129.21407 | 38160 ft | 445 kts | 236° |
| 2026-04-16 14:18 | 27.86888 | 129.18637 | 37796 ft | 446 kts | 236° |
| 2026-04-16 14:18 | 27.85005 | 129.15891 | 37439 ft | 447 kts | 236° |
| 2026-04-16 14:18 | 27.83096 | 129.13107 | 37094 ft | 449 kts | 236° |
| 2026-04-16 14:19 | 27.81181 | 129.10316 | 36736 ft | 450 kts | 236° |
| 2026-04-16 14:19 | 27.79259 | 129.07518 | 36389 ft | 451 kts | 236° |
| 2026-04-16 14:19 | 27.77326 | 129.04706 | 36098 ft | 453 kts | 236° |
| 2026-04-16 14:19 | 27.75395 | 129.01899 | 36012 ft | 453 kts | 236° |
| 2026-04-16 14:20 | 27.71542 | 128.96307 | 35587 ft | 449 kts | 236° |
| 2026-04-16 14:20 | 27.69615 | 128.93511 | 35060 ft | 450 kts | 236° |
| 2026-04-16 14:20 | 27.67717 | 128.90757 | 34556 ft | 451 kts | 236° |
| 2026-04-16 14:21 | 27.65785 | 128.87954 | 34034 ft | 453 kts | 236° |
| 2026-04-16 14:21 | 27.63843 | 128.85141 | 33450 ft | 455 kts | 236° |
| 2026-04-16 14:21 | 27.61893 | 128.82316 | 32869 ft | 458 kts | 236° |
| 2026-04-16 14:21 | 27.59922 | 128.79465 | 32293 ft | 460 kts | 236° |
| 2026-04-16 14:22 | 27.57953 | 128.76617 | 31697 ft | 463 kts | 236° |
| 2026-04-16 14:22 | 27.55961 | 128.73740 | 31156 ft | 466 kts | 235° |
| 2026-04-16 14:22 | 27.53957 | 128.70847 | 30585 ft | 469 kts | 235° |
| 2026-04-16 14:22 | 27.51942 | 128.67939 | 30023 ft | 473 kts | 235° |
| 2026-04-16 14:23 | 27.49943 | 128.65058 | 29380 ft | 473 kts | 235° |
| 2026-04-16 14:23 | 27.47923 | 128.62151 | 28728 ft | 469 kts | 235° |
| 2026-04-16 14:23 | 27.45920 | 128.59273 | 28089 ft | 465 kts | 235° |
| 2026-04-16 14:23 | 27.43933 | 128.56417 | 27455 ft | 460 kts | 235° |
| 2026-04-16 14:24 | 27.41969 | 128.53596 | 26843 ft | 456 kts | 235° |
| 2026-04-16 14:24 | 27.40023 | 128.50800 | 26243 ft | 452 kts | 235° |
| 2026-04-16 14:24 | 27.38089 | 128.48023 | 25681 ft | 448 kts | 235° |
| 2026-04-16 14:24 | 27.36175 | 128.45277 | 25156 ft | 444 kts | 235° |
| 2026-04-16 14:25 | 27.34270 | 128.42543 | 24670 ft | 442 kts | 235° |
| 2026-04-16 14:25 | 27.32396 | 128.39857 | 24166 ft | 439 kts | 235° |
| 2026-04-16 14:25 | 27.30513 | 128.37158 | 23686 ft | 436 kts | 235° |
| 2026-04-16 14:25 | 27.28644 | 128.34482 | 23129 ft | 434 kts | 235° |
| 2026-04-16 14:26 | 27.26786 | 128.31823 | 22563 ft | 431 kts | 235° |
| 2026-04-16 14:26 | 27.24940 | 128.29183 | 22006 ft | 428 kts | 235° |
| 2026-04-16 14:26 | 27.23102 | 128.26556 | 21458 ft | 426 kts | 234° |
| 2026-04-16 14:26 | 27.21277 | 128.23949 | 20936 ft | 423 kts | 234° |
| 2026-04-16 14:27 | 27.19462 | 128.21359 | 20407 ft | 421 kts | 234° |
| 2026-04-16 14:27 | 27.17653 | 128.18779 | 19881 ft | 415 kts | 234° |
| 2026-04-16 14:27 | 27.15877 | 128.16248 | 19373 ft | 408 kts | 234° |
| 2026-04-16 14:27 | 27.14155 | 128.13797 | 18872 ft | 397 kts | 234° |
| 2026-04-16 14:28 | 27.12528 | 128.11396 | 18385 ft | 373 kts | 238° |
| 2026-04-16 14:28 | 27.11162 | 128.08994 | 18051 ft | 359 kts | 240° |
| 2026-04-16 14:28 | 27.09866 | 128.06621 | 17620 ft | 355 kts | 241° |
| 2026-04-16 14:28 | 27.08589 | 128.04252 | 17023 ft | 354 kts | 241° |
| 2026-04-16 14:29 | 27.07334 | 128.01880 | 16407 ft | 353 kts | 243° |
| 2026-04-16 14:29 | 27.06161 | 127.99472 | 15794 ft | 346 kts | 244° |
| 2026-04-16 14:29 | 27.05044 | 127.97150 | 15206 ft | 340 kts | 244° |
| 2026-04-16 14:29 | 27.03923 | 127.94820 | 14626 ft | 338 kts | 244° |
| 2026-04-16 14:30 | 27.02813 | 127.92505 | 14053 ft | 336 kts | 244° |
| 2026-04-16 14:30 | 27.01709 | 127.90209 | 13445 ft | 333 kts | 244° |
| 2026-04-16 14:30 | 27.00610 | 127.87923 | 12825 ft | 333 kts | 244° |
| 2026-04-16 14:30 | 26.99510 | 127.85632 | 12244 ft | 333 kts | 244° |
| 2026-04-16 14:31 | 26.98414 | 127.83339 | 11682 ft | 332 kts | 244° |
| 2026-04-16 14:31 | 26.97331 | 127.81073 | 11243 ft | 327 kts | 244° |
| 2026-04-16 14:31 | 26.96266 | 127.78842 | 10820 ft | 324 kts | 244° |
| 2026-04-16 14:31 | 26.95220 | 127.76647 | 10399 ft | 322 kts | 244° |
| 2026-04-16 14:32 | 26.94187 | 127.74478 | 9978 ft | 307 kts | 244° |
| 2026-04-16 14:32 | 26.93199 | 127.72408 | 9385 ft | 295 kts | 244° |
| 2026-04-16 14:32 | 26.92194 | 127.70438 | 8751 ft | 287 kts | 237° |
| 2026-04-16 14:32 | 26.90871 | 127.68793 | 8189 ft | 283 kts | 225° |
| 2026-04-16 14:33 | 26.89426 | 127.67307 | 7628 ft | 281 kts | 225° |
| 2026-04-16 14:33 | 26.87969 | 127.65839 | 7082 ft | 280 kts | 224° |
| 2026-04-16 14:33 | 26.86518 | 127.64393 | 6580 ft | 284 kts | 224° |
| 2026-04-16 14:33 | 26.85032 | 127.62906 | 6008 ft | 287 kts | 224° |
| 2026-04-16 14:34 | 26.83537 | 127.61401 | 5437 ft | 289 kts | 224° |
| 2026-04-16 14:34 | 26.82049 | 127.59869 | 4879 ft | 291 kts | 224° |
| 2026-04-16 14:34 | 26.80476 | 127.58455 | 4388 ft | 289 kts | 212° |
| 2026-04-16 14:34 | 26.78707 | 127.57453 | 4133 ft | 279 kts | 205° |
| 2026-04-16 14:35 | 26.76986 | 127.56593 | 3908 ft | 270 kts | 204° |
| 2026-04-16 14:35 | 26.75284 | 127.55748 | 3714 ft | 266 kts | 204° |
| 2026-04-16 14:35 | 26.73583 | 127.54901 | 3533 ft | 266 kts | 204° |
| 2026-04-16 14:35 | 26.71825 | 127.54273 | 3396 ft | 265 kts | 189° |
| 2026-04-16 14:36 | 26.69992 | 127.54275 | 3190 ft | 264 kts | 169° |
| 2026-04-16 14:36 | 26.68209 | 127.54755 | 3015 ft | 262 kts | 163° |
| 2026-04-16 14:36 | 26.66463 | 127.55332 | 2842 ft | 261 kts | 162° |
| 2026-04-16 14:36 | 26.65312 | 127.55726 | 2737 ft | 261 kts | 162° |
| 2026-04-16 14:37 | 26.63029 | 127.56516 | 2490 ft | 253 kts | 161° |
| 2026-04-16 14:37 | 26.61375 | 127.57092 | 2312 ft | 244 kts | 160° |
| 2026-04-16 14:37 | 26.60297 | 127.57467 | 2169 ft | 237 kts | 160° |
| 2026-04-16 14:37 | 26.58747 | 127.58010 | 2030 ft | 228 kts | 160° |
| 2026-04-16 14:38 | 26.57276 | 127.58526 | 1993 ft | 216 kts | 160° |
| 2026-04-16 14:38 | 26.55856 | 127.59025 | 2001 ft | 217 kts | 160° |
| 2026-04-16 14:38 | 26.54416 | 127.59532 | 2000 ft | 217 kts | 159° |
| 2026-04-16 14:38 | 26.52972 | 127.60039 | 1997 ft | 218 kts | 160° |
| 2026-04-16 14:39 | 26.51522 | 127.60544 | 1998 ft | 218 kts | 160° |
| 2026-04-16 14:39 | 26.50067 | 127.61021 | 1996 ft | 216 kts | 164° |
| 2026-04-16 14:39 | 26.48616 | 127.61263 | 1916 ft | 207 kts | 172° |
| 2026-04-16 14:39 | 26.47201 | 127.61402 | 1742 ft | 201 kts | 172° |
| 2026-04-16 14:40 | 26.45837 | 127.61522 | 1597 ft | 191 kts | 172° |
| 2026-04-16 14:40 | 26.44544 | 127.61636 | 1412 ft | 183 kts | 172° |
| 2026-04-16 14:40 | 26.43307 | 127.61747 | 1254 ft | 173 kts | 172° |
| 2026-04-16 14:40 | 26.42137 | 127.61852 | 1195 ft | 169 kts | 172° |
| 2026-04-16 14:41 | 26.40960 | 127.61961 | 1191 ft | 170 kts | 172° |
| 2026-04-16 14:41 | 26.39781 | 127.62071 | 1191 ft | 170 kts | 173° |
| 2026-04-16 14:41 | 26.38598 | 127.62181 | 1190 ft | 171 kts | 172° |
| 2026-04-16 14:41 | 26.37411 | 127.62290 | 1189 ft | 171 kts | 173° |
| 2026-04-16 14:42 | 26.36224 | 127.62398 | 1186 ft | 169 kts | 172° |
| 2026-04-16 14:42 | 26.35082 | 127.62522 | 1191 ft | 163 kts | 172° |
| 2026-04-16 14:42 | 26.33970 | 127.62578 | 1206 ft | 161 kts | 174° |
| 2026-04-16 14:42 | 26.32853 | 127.62623 | 1207 ft | 160 kts | 174° |
| 2026-04-16 14:43 | 26.31734 | 127.62678 | 1170 ft | 161 kts | 173° |
| 2026-04-16 14:43 | 26.30615 | 127.62742 | 1168 ft | 161 kts | 173° |
| 2026-04-16 14:43 | 26.29483 | 127.62803 | 1167 ft | 163 kts | 173° |
| 2026-04-16 14:43 | 26.28393 | 127.62855 | 1152 ft | 149 kts | 173° |
| 2026-04-16 14:44 | 26.27406 | 127.62901 | 1159 ft | 138 kts | 173° |
| 2026-04-16 14:44 | 26.26438 | 127.62949 | 1176 ft | 143 kts | 173° |
| 2026-04-16 14:44 | 26.25434 | 127.62997 | 1061 ft | 145 kts | 173° |
| 2026-04-16 14:44 | 26.24431 | 127.63042 | 872 ft | 143 kts | 174° |
| 2026-04-16 14:45 | 26.23437 | 127.63090 | 701 ft | 143 kts | 173° |
| 2026-04-16 14:45 | 26.22444 | 127.63117 | 458 ft | 142 kts | 172° |
| 2026-04-16 14:45 | 26.21456 | 127.63173 | 260 ft | 142 kts | 170° |
| 2026-04-16 14:45 | 26.20468 | 127.63230 | 93 ft | 143 kts | 173° |
| 2026-04-16 14:46 | 26.19490 | 127.63282 | 26 ft | 127 kts | 177° |
| 2026-04-16 14:46 | 26.18870 | 127.63308 | 23 ft | 52 kts | 177° |
| 2026-04-16 14:46 | 26.18660 | 127.63321 | 24 ft | 19 kts | 175° |
| 2026-04-16 14:46 | 26.18537 | 127.63350 | 28 ft | 18 kts | 159° |
| 2026-04-16 14:47 | 26.18428 | 127.63409 | 26 ft | 18 kts | 152° |
| 2026-04-16 14:47 | 26.18375 | 127.63480 | 28 ft | 10 kts | 90° |
| 2026-04-16 14:47 | 26.18427 | 127.63516 | 27 ft | 10 kts | 10° |
| 2026-04-16 14:47 | 26.18511 | 127.63516 | 26 ft | 17 kts | 357° |
| 2026-04-16 14:48 | 26.18648 | 127.63509 | 25 ft | 21 kts | 357° |
| 2026-04-16 14:48 | 26.18802 | 127.63501 | 24 ft | 21 kts | 358° |
| 2026-04-16 14:48 | 26.18950 | 127.63495 | 25 ft | 22 kts | 358° |
| 2026-04-16 14:48 | 26.19100 | 127.63489 | 24 ft | 23 kts | 358° |
| 2026-04-16 14:49 | 26.19257 | 127.63481 | 24 ft | 23 kts | 357° |
| 2026-04-16 14:49 | 26.19417 | 127.63474 | 24 ft | 23 kts | 358° |
| 2026-04-16 14:49 | 26.19577 | 127.63466 | 24 ft | 22 kts | 357° |
| 2026-04-16 14:49 | 26.19728 | 127.63458 | 26 ft | 22 kts | 357° |
| 2026-04-16 14:50 | 26.19887 | 127.63451 | 28 ft | 22 kts | 357° |
| 2026-04-16 14:50 | 26.20036 | 127.63443 | 24 ft | 19 kts | 357° |
| 2026-04-16 14:50 | 26.20154 | 127.63438 | 25 ft | 16 kts | 358° |
| 2026-04-16 14:50 | 26.20233 | 127.63434 | 25 ft | 10 kts | 359° |
| 2026-04-16 14:51 | 26.20292 | 127.63472 | 25 ft | 11 kts | 59° |
| 2026-04-16 14:51 | 26.20304 | 127.63565 | 25 ft | 13 kts | 89° |
| 2026-04-16 14:51 | 26.20308 | 127.63678 | 27 ft | 16 kts | 87° |
| 2026-04-16 14:51 | 26.20313 | 127.63808 | 24 ft | 18 kts | 88° |
| 2026-04-16 14:53 | 26.20338 | 127.64459 | 24 ft | 6 kts | 88° |
| 2026-04-16 14:53 | 26.20341 | 127.64542 | 25 ft | 13 kts | 88° |
| 2026-04-16 14:54 | 26.20359 | 127.64636 | 29 ft | 14 kts | 59° |
| 2026-04-16 14:54 | 26.20435 | 127.64700 | 27 ft | 12 kts | 28° |
| 2026-04-16 14:54 | 26.20508 | 127.64736 | 26 ft | 11 kts | 15° |
| 2026-04-16 14:54 | 26.20580 | 127.64751 | 24 ft | 8 kts | 18° |
| 2026-04-16 14:55 | 26.20598 | 127.64785 | 29 ft | 3 kts | 91° |
| 2026-04-16 14:55 | 26.20589 | 127.64809 | 29 ft | 4 kts | 117° |
| 2026-04-16 14:55 | 26.20566 | 127.64837 | 27 ft | 4 kts | 133° |
| 2026-04-16 14:55 | 26.20554 | 127.64852 | 27 ft | 1 kts | 133° |
| 2026-04-16 14:56 | 26.20551 | 127.64854 | 27 ft | 0 kts | 133° |
| 2026-04-16 14:56 | 26.20551 | 127.64855 | 27 ft | 0 kts | 133° |